Time;durP1;ratioP1;P1;durP2;ratioP2;P2;SDS_P1;SDS_P2;PMS_P1;PMS_P2;Temp;Humidity;BMP_temperature;BMP_pressure;BME280_temperature;BME280_humidity;BME280_pressure;Samples;Min_cycle;Max_cycle;Signal;HPM_P1;HPM_P2
2022/11/03 00:00:24;;;;;;;13.40;6.43;;;;;;;11.12;65.67;93220.25;2052245;70;20141;-74
2022/11/03 00:02:49;;;;;;;13.55;6.20;;;;;;;11.10;66.03;93214.50;2053880;70;20138;-74
2022/11/03 00:08:01;;;;;;;16.25;6.72;;;;;;;10.95;66.16;93203.63;2053526;70;20157;-74
2022/11/03 00:10:26;;;;;;;13.32;5.90;;;;;;;10.94;65.92;93199.31;2053579;70;20150;-74
2022/11/03 00:12:54;;;;;;;13.70;6.38;;;;;;;10.92;66.25;93197.13;2050679;70;20160;-73
2022/11/03 00:15:20;;;;;;;12.07;6.68;;;;;;;10.91;66.01;93200.53;2054153;70;20185;-75
2022/11/03 00:17:46;;;;;;;11.68;6.70;;;;;;;10.93;66.06;93200.66;2054336;70;20149;-73
2022/11/03 00:20:11;;;;;;;11.07;5.63;;;;;;;10.99;65.60;93205.97;2054156;70;20163;-75
2022/11/03 00:22:37;;;;;;;11.13;5.95;;;;;;;10.88;66.26;93201.72;2050978;70;20186;-74
2022/11/03 00:25:03;;;;;;;12.98;6.53;;;;;;;10.65;66.64;93197.41;2054187;70;20260;-75
2022/11/03 00:27:28;;;;;;;11.00;5.55;;;;;;;10.17;69.62;93187.06;2054174;70;20250;-75
2022/11/03 00:29:54;;;;;;;12.25;6.35;;;;;;;10.42;67.53;93194.41;2050945;70;20170;-75
2022/11/03 00:32:19;;;;;;;14.55;5.90;;;;;;;10.46;67.13;93177.78;2054121;69;20566;-74
2022/11/03 00:34:45;;;;;;;15.40;6.53;;;;;;;10.43;67.30;93193.06;2053642;70;20192;-73
2022/11/03 00:37:10;;;;;;;12.93;6.07;;;;;;;10.27;68.27;93189.88;2053761;70;20150;-74
2022/11/03 00:39:36;;;;;;;12.13;5.53;;;;;;;10.36;67.60;93175.03;2050160;70;20158;-74
2022/11/03 00:42:02;;;;;;;14.57;5.53;;;;;;;10.51;66.83;93176.72;2050294;70;20153;-74
2022/11/03 00:44:27;;;;;;;10.43;5.18;;;;;;;10.56;67.25;93177.75;2053522;70;20185;-74
2022/11/03 00:46:53;;;;;;;12.38;5.47;;;;;;;10.39;66.43;93179.44;2053739;70;20241;-74
2022/11/03 00:49:20;;;;;;;11.88;5.57;;;;;;;10.44;67.08;93174.81;2054016;70;20150;-75
2022/11/03 00:51:46;;;;;;;10.77;5.70;;;;;;;10.44;66.28;93174.81;2054054;70;20186;-76
2022/11/03 00:54:12;;;;;;;13.38;5.10;;;;;;;10.45;66.65;93181.94;2050801;70;20162;-75
2022/11/03 00:56:40;;;;;;;8.23;4.78;;;;;;;10.48;65.97;93185.63;2054064;70;20558;-76
2022/11/03 00:59:07;;;;;;;12.18;5.00;;;;;;;10.53;65.72;93178.94;2053895;70;20142;-75
2022/11/03 01:01:43;;;;;;;10.63;5.18;;;;;;;10.46;65.83;93177.06;2054128;70;20562;-75
2022/11/03 01:06:56;;;;;;;8.60;5.15;;;;;;;10.42;65.93;93172.63;2053968;70;20252;-74
2022/11/03 01:09:28;;;;;;;10.35;5.25;;;;;;;10.44;65.52;93166.38;2050701;70;20177;-75
2022/11/03 01:12:03;;;;;;;11.10;5.60;;;;;;;10.12;67.45;93162.78;2054571;70;20267;-76
2022/11/03 01:14:40;;;;;;;12.82;5.80;;;;;;;10.23;66.54;93164.22;2054477;70;20145;-75
2022/11/03 01:17:08;;;;;;;12.68;5.32;;;;;;;10.08;66.84;93158.94;2051796;70;20252;-74
2022/11/03 01:19:34;;;;;;;12.40;5.60;;;;;;;9.90;66.67;93153.53;2053948;70;20166;-76
2022/11/03 01:22:00;;;;;;;12.38;5.47;;;;;;;10.05;66.98;93160.16;2054060;70;20248;-73
2022/11/03 01:24:25;;;;;;;12.95;5.78;;;;;;;10.01;66.77;93148.59;2052082;70;20142;-74
2022/11/03 01:26:51;;;;;;;14.25;5.60;;;;;;;9.95;66.68;93145.38;2048070;70;20174;-73
2022/11/03 01:29:17;;;;;;;10.85;5.57;;;;;;;9.49;69.08;93149.19;2048064;70;20154;-75
2022/11/03 01:31:43;;;;;;;10.63;5.40;;;;;;;9.74;68.34;93141.13;2051507;70;20319;-75
2022/11/03 01:34:15;;;;;;;13.60;5.60;;;;;;;9.83;67.46;93136.81;2051362;70;20240;-77
2022/11/03 01:36:43;;;;;;;9.32;5.32;;;;;;;9.73;67.56;93138.91;2051086;70;20162;-77
2022/11/03 01:39:13;;;;;;;9.85;5.57;;;;;;;9.68;67.30;93146.31;2050988;70;20221;-77
2022/11/03 01:41:41;;;;;;;13.88;5.53;;;;;;;9.72;67.64;93137.44;2051264;70;20238;-76
2022/11/03 01:44:06;;;;;;;14.13;5.05;;;;;;;9.70;67.67;93135.22;2051509;70;20152;-73
2022/11/03 01:46:47;;;;;;;9.15;4.50;;;;;;;9.69;66.79;93130.94;2050929;70;20126;-73
2022/11/03 01:49:18;;;;;;;11.10;4.70;;;;;;;9.69;67.33;93128.13;2050971;70;20181;-74
2022/11/03 01:51:48;;;;;;;9.82;5.28;;;;;;;9.66;67.66;93135.66;2051056;70;20232;-74
2022/11/03 01:54:18;;;;;;;10.85;4.88;;;;;;;9.65;68.07;93141.88;2051077;70;20138;-73
2022/11/03 01:56:47;;;;;;;12.52;5.75;;;;;;;9.43;68.83;93141.03;2050894;70;20155;-73
2022/11/03 01:59:15;;;;;;;11.18;5.30;;;;;;;9.46;68.64;93141.91;2051141;70;20162;-74
2022/11/03 02:01:42;;;;;;;11.40;5.25;;;;;;;9.41;68.54;93132.47;2050883;70;20546;-74
2022/11/03 02:04:12;;;;;;;9.73;5.07;;;;;;;9.50;68.31;93134.53;2047887;70;20161;-73
2022/11/03 02:06:38;;;;;;;14.45;5.57;;;;;;;9.38;68.16;93131.56;2050994;70;20606;-73
2022/11/03 02:09:07;;;;;;;12.02;5.20;;;;;;;9.45;67.75;93126.41;2050931;70;20208;-74
2022/11/03 02:14:20;;;;;;;11.13;5.20;;;;;;;9.44;68.74;93125.66;2051049;70;20563;-73
2022/11/03 02:16:53;;;;;;;10.02;5.10;;;;;;;9.39;68.33;93126.69;2054204;69;20586;-72
2022/11/03 02:19:26;;;;;;;11.02;4.70;;;;;;;9.43;68.28;93132.59;2054338;70;20165;-73
2022/11/03 02:22:01;;;;;;;10.85;4.55;;;;;;;9.42;68.47;93131.13;2054300;70;20134;-72
2022/11/03 02:24:44;;;;;;;9.43;4.78;;;;;;;9.33;67.97;93115.00;2054319;70;20143;-72
2022/11/03 02:27:10;;;;;;;12.02;5.43;;;;;;;9.41;68.21;93121.22;2054458;70;20142;-73
2022/11/03 02:29:36;;;;;;;11.63;4.82;;;;;;;9.38;68.26;93117.50;2054423;70;20657;-72
2022/11/03 02:32:28;;;;;;;13.30;4.80;;;;;;;9.31;68.05;93115.63;2054588;69;20263;-74
2022/11/03 02:35:35;;;;;;;11.30;4.63;;;;;;;9.24;69.24;93112.94;2051705;70;20157;-72
2022/11/03 02:38:04;;;;;;;11.07;4.47;;;;;;;9.27;68.22;93109.69;2040465;70;20155;-74
2022/11/03 02:40:33;;;;;;;10.88;4.47;;;;;;;9.27;68.29;93106.16;2040415;70;20535;-74
2022/11/03 02:43:00;;;;;;;9.63;4.95;;;;;;;9.21;69.10;93111.31;2040488;70;20277;-74
2022/11/03 02:45:46;;;;;;;6.85;4.50;;;;;;;9.29;68.62;93112.66;2040486;70;20151;-74
2022/11/03 02:48:14;;;;;;;17.08;4.85;;;;;;;9.20;68.73;93104.97;2040196;70;20198;-73
2022/11/03 02:51:00;;;;;;;11.40;5.13;;;;;;;8.96;69.42;93100.41;2040124;70;20691;-74
2022/11/03 02:53:29;;;;;;;10.00;4.85;;;;;;;9.06;68.82;93103.94;2033072;70;20156;-74
2022/11/03 02:56:04;;;;;;;8.50;5.18;;;;;;;9.21;68.37;93098.03;2033241;70;20493;-74
2022/11/03 02:58:51;;;;;;;9.93;4.60;;;;;;;9.02;69.29;93098.03;2033246;70;20156;-73
2022/11/03 03:01:25;;;;;;;10.70;4.72;;;;;;;9.04;69.20;93093.31;2033157;70;20152;-74
2022/11/03 03:03:57;;;;;;;10.80;4.65;;;;;;;8.90;69.85;93093.00;2033289;70;20136;-73
2022/11/03 03:06:32;;;;;;;8.68;5.05;;;;;;;9.08;68.70;93090.06;2032983;70;20521;-73
2022/11/03 03:09:06;;;;;;;10.73;5.13;;;;;;;8.96;69.29;93089.16;2033063;70;20152;-74
2022/11/03 03:11:37;;;;;;;10.65;4.43;;;;;;;9.07;68.68;93083.72;2035245;70;20151;-75
2022/11/03 03:14:07;;;;;;;10.70;5.00;;;;;;;9.04;69.28;93086.97;2040001;70;20587;-74
2022/11/03 03:16:39;;;;;;;12.75;4.88;;;;;;;9.13;68.81;93077.78;2039946;70;20268;-74
2022/11/03 03:19:22;;;;;;;11.60;4.32;;;;;;;9.07;69.60;93069.66;2040001;70;20167;-74
2022/11/03 03:21:52;;;;;;;15.50;4.78;;;;;;;9.08;68.34;93059.16;2040042;70;20600;-74
2022/11/03 03:24:30;;;;;;;12.32;4.93;;;;;;;8.83;69.32;93056.66;2042629;70;20233;-74
2022/11/03 03:26:58;;;;;;;8.65;4.72;;;;;;;8.87;69.95;93060.50;2054383;70;20221;-74
2022/11/03 03:29:28;;;;;;;9.95;4.47;;;;;;;8.93;69.14;93065.06;2054318;70;20260;-74
2022/11/03 03:31:58;;;;;;;10.65;4.15;;;;;;;8.78;70.19;93064.03;2054301;70;20166;-73
2022/11/03 03:34:25;;;;;;;9.07;4.43;;;;;;;8.87;70.02;93065.38;2054400;70;20354;-73
2022/11/03 03:36:55;;;;;;;7.25;4.10;;;;;;;8.86;68.86;93070.25;2054114;70;20181;-73
2022/11/03 03:39:25;;;;;;;9.35;4.57;;;;;;;9.02;68.30;93064.31;2054223;70;20144;-73
2022/11/03 03:41:56;;;;;;;11.25;4.40;;;;;;;8.93;69.38;93063.00;2050919;70;20173;-73
2022/11/03 03:44:22;;;;;;;9.10;4.85;;;;;;;8.87;69.04;93060.50;2054417;70;20173;-74
2022/11/03 03:46:56;;;;;;;8.82;4.53;;;;;;;8.93;68.76;93057.38;2053965;70;20608;-73
2022/11/03 03:49:25;;;;;;;14.20;4.68;;;;;;;8.94;69.29;93055.34;2051219;70;20131;-77
2022/11/03 03:51:50;;;;;;;13.20;4.78;;;;;;;8.91;68.99;93048.81;2054115;70;20162;-74
2022/11/03 03:54:17;;;;;;;9.90;4.22;;;;;;;8.92;68.96;93050.31;2053880;70;20224;-76
2022/11/03 03:56:50;;;;;;;11.50;4.60;;;;;;;8.85;69.22;93051.19;2054357;70;20138;-75
2022/11/03 03:59:16;;;;;;;11.35;4.82;;;;;;;8.68;69.30;93054.88;2054172;69;20257;-76
2022/11/03 04:01:42;;;;;;;9.95;5.13;;;;;;;8.59;70.57;93050.00;2054412;70;20152;-78
2022/11/03 04:04:08;;;;;;;15.38;6.05;;;;;;;8.55;71.00;93050.44;2054195;70;20157;-78
2022/11/03 04:06:33;;;;;;;12.13;5.15;;;;;;;8.60;70.08;93055.03;2054054;70;20184;-76
2022/11/03 04:08:59;;;;;;;10.80;4.70;;;;;;;8.49;71.23;93050.00;2054013;69;20239;-75
2022/11/03 04:22:24;;;;;;;7.85;4.20;;;;;;;8.71;69.07;93034.06;2054248;70;20142;-75
2022/11/03 04:24:50;;;;;;;14.70;4.00;;;;;;;8.65;69.53;93047.66;2054041;70;20150;-77
2022/11/03 04:27:30;;;;;;;11.32;5.97;;;;;;;8.13;71.86;93051.53;2050763;70;20268;-74
2022/11/03 04:29:58;;;;;;;18.50;6.30;;;;;;;8.44;70.54;93050.31;2054052;70;20245;-75
2022/11/03 04:32:25;;;;;;;13.57;5.43;;;;;;;8.31;69.71;93023.38;2053977;70;20244;-75
2022/11/03 04:34:51;;;;;;;10.30;5.18;;;;;;;8.37;69.57;93041.41;2054178;70;20154;-75
2022/11/03 04:37:17;;;;;;;10.85;5.10;;;;;;;8.34;69.52;93047.47;2054045;70;20161;-75
2022/11/03 04:39:42;;;;;;;12.05;6.22;;;;;;;8.35;69.75;93043.31;2053795;70;20526;-75
2022/11/03 04:42:19;;;;;;;16.15;5.80;;;;;;;8.34;70.78;93031.38;2054234;70;20138;-75
2022/11/03 04:44:46;;;;;;;11.75;5.65;;;;;;;8.35;70.16;93026.50;2054032;70;20233;-75
2022/11/03 04:47:14;;;;;;;13.68;4.72;;;;;;;8.27;71.16;93021.00;2054184;70;20138;-76
2022/11/03 04:49:41;;;;;;;9.05;4.47;;;;;;;8.33;71.04;93020.72;2053767;70;20157;-75
2022/11/03 04:52:16;;;;;;;15.75;4.10;;;;;;;8.48;70.11;93022.56;2054048;70;20154;-77
2022/11/03 04:54:42;;;;;;;10.00;4.32;;;;;;;8.52;70.31;93023.59;2054277;70;20234;-77
2022/11/03 04:57:11;;;;;;;10.88;4.32;;;;;;;8.47;70.12;93027.41;2054276;70;20138;-76
2022/11/03 04:59:37;;;;;;;9.93;4.70;;;;;;;8.46;69.99;93022.38;2054393;70;20224;-75
2022/11/03 05:02:10;;;;;;;10.55;5.05;;;;;;;8.10;71.79;93026.72;2054243;70;20550;-76
2022/11/03 05:04:35;;;;;;;8.63;5.03;;;;;;;8.20;71.63;93021.91;2054326;70;20151;-76
2022/11/03 05:07:12;;;;;;;11.38;5.22;;;;;;;8.30;70.73;93014.22;2054280;70;20236;-76
2022/11/03 05:09:39;;;;;;;11.82;5.47;;;;;;;8.32;70.64;93011.56;2054259;70;20172;-76
2022/11/03 05:12:04;;;;;;;10.95;5.07;;;;;;;8.36;70.71;93002.72;2054224;70;20178;-75
2022/11/03 05:14:31;;;;;;;13.30;4.82;;;;;;;8.46;69.99;93000.69;2054253;70;20243;-75
2022/11/03 05:16:57;;;;;;;11.13;4.55;;;;;;;8.33;70.54;92987.78;2054128;70;20530;-75
2022/11/03 05:20:00;;;;;;;11.65;4.30;;;;;;;8.36;70.49;92988.69;2054201;70;20169;-75
2022/11/03 05:22:29;;;;;;;11.40;4.17;;;;;;;8.23;71.92;92987.06;2049982;70;20272;-76
2022/11/03 05:24:59;;;;;;;9.60;4.47;;;;;;;8.27;70.74;92986.63;2054070;70;20174;-76
2022/11/03 05:27:26;;;;;;;12.52;5.00;;;;;;;8.23;70.66;92989.84;2054173;70;20501;-75
2022/11/03 05:29:54;;;;;;;8.60;4.13;;;;;;;8.25;71.30;92992.09;2054325;70;20565;-76
2022/11/03 05:32:29;;;;;;;8.50;4.18;;;;;;;8.25;70.57;92984.41;2054335;70;20186;-76
2022/11/03 05:34:55;;;;;;;11.32;4.15;;;;;;;8.18;71.84;92979.66;2054324;70;20175;-76
2022/11/03 05:37:21;;;;;;;10.02;4.10;;;;;;;8.34;71.29;92980.13;2054133;70;20237;-76
2022/11/03 05:39:47;;;;;;;13.82;4.28;;;;;;;8.26;71.03;92985.88;2054233;70;20475;-77
2022/11/03 05:42:22;;;;;;;8.70;4.22;;;;;;;8.35;69.90;92971.13;2054166;70;20158;-76
2022/11/03 05:44:51;;;;;;;13.93;5.32;;;;;;;8.29;70.31;92979.09;2054187;70;20245;-73
2022/11/03 05:47:21;;;;;;;10.30;4.88;;;;;;;8.28;70.29;92972.00;2054112;70;20640;-74
2022/11/03 05:49:49;;;;;;;9.88;4.40;;;;;;;8.27;69.99;92970.53;2054555;70;20158;-72
2022/11/03 05:52:20;;;;;;;9.23;3.97;;;;;;;8.21;70.89;92966.53;2051156;70;20170;-72
2022/11/03 05:54:46;;;;;;;15.88;4.07;;;;;;;8.31;70.61;92967.28;2054189;70;20555;-73
2022/11/03 05:57:15;;;;;;;11.05;4.95;;;;;;;8.11;71.16;92977.75;2054149;70;20177;-74
2022/11/03 05:59:44;;;;;;;12.77;4.97;;;;;;;7.97;71.77;92979.47;2054119;70;20348;-73
2022/11/03 06:02:21;;;;;;;11.88;5.40;;;;;;;8.00;70.94;92976.25;2054110;70;20609;-74
2022/11/03 06:04:48;;;;;;;12.90;5.60;;;;;;;8.05;71.34;92985.69;2054234;70;20138;-74
2022/11/03 06:07:25;;;;;;;19.48;6.43;;;;;;;8.17;69.99;92980.25;2054019;70;20153;-76
2022/11/03 06:09:52;;;;;;;11.30;5.60;;;;;;;8.15;69.81;92978.03;2054148;70;20511;-74
2022/11/03 06:12:21;;;;;;;14.48;5.97;;;;;;;8.18;68.94;92974.06;2054562;70;20186;-74
2022/11/03 06:14:48;;;;;;;13.65;5.40;;;;;;;8.07;70.20;92966.97;2054640;70;20146;-74
2022/11/03 06:17:25;;;;;;;31.63;15.52;;;;;;;7.71;71.55;92976.19;2054878;70;20165;-74
2022/11/03 06:19:54;;;;;;;20.15;9.32;;;;;;;7.97;70.76;92965.47;2054634;70;20487;-74
2022/11/03 06:22:20;;;;;;;17.58;9.15;;;;;;;8.04;70.68;92959.72;2054556;70;20559;-74
2022/11/03 06:24:46;;;;;;;18.08;8.73;;;;;;;8.00;70.38;92956.63;2054436;70;20161;-75
2022/11/03 06:27:15;;;;;;;18.85;7.82;;;;;;;8.04;69.88;92954.13;2051239;70;20590;-74
2022/11/03 06:29:45;;;;;;;14.80;6.20;;;;;;;8.09;70.71;92955.16;2051280;70;20150;-76
2022/11/03 06:32:12;;;;;;;11.80;4.57;;;;;;;8.19;70.29;92958.69;2054693;70;20207;-75
2022/11/03 06:34:43;;;;;;;9.73;4.40;;;;;;;8.34;70.63;92955.63;2054455;70;20165;-76
2022/11/03 06:37:17;;;;;;;12.30;5.03;;;;;;;8.13;70.76;92959.00;2054720;70;20177;-75
2022/11/03 06:39:42;;;;;;;13.68;5.70;;;;;;;8.25;70.73;92961.97;2054440;70;20133;-74
2022/11/03 06:42:13;;;;;;;12.27;5.72;;;;;;;8.24;70.04;92957.66;2054699;70;20621;-74
2022/11/03 06:44:45;;;;;;;12.70;6.20;;;;;;;8.28;70.42;92966.38;2054460;70;20142;-73
2022/11/03 06:47:22;;;;;;;10.73;5.75;;;;;;;8.35;70.00;92968.31;2051403;70;20518;-74
2022/11/03 06:49:50;;;;;;;8.93;5.80;;;;;;;8.25;70.71;92969.66;2054604;70;20169;-74
2022/11/03 06:52:32;;;;;;;16.35;6.03;;;;;;;8.31;69.88;92964.47;2054796;70;20197;-74
2022/11/03 06:55:06;;;;;;;12.90;6.43;;;;;;;8.27;70.34;92967.72;2054764;69;20203;-74
2022/11/03 06:57:36;;;;;;;17.33;8.52;;;;;;;8.23;70.47;92961.81;2054475;70;20579;-74
2022/11/03 07:00:14;;;;;;;12.02;5.72;;;;;;;8.17;70.15;92944.53;2054438;70;20226;-74
2022/11/03 07:02:58;;;;;;;16.08;5.65;;;;;;;8.43;69.65;92953.41;2054526;70;20229;-75
2022/11/03 07:05:28;;;;;;;11.45;6.50;;;;;;;8.56;69.46;92958.56;2054536;70;20245;-75
2022/11/03 07:07:57;;;;;;;12.07;6.22;;;;;;;8.63;68.83;92950.00;2054417;70;20613;-75
2022/11/03 07:10:28;;;;;;;13.73;6.18;;;;;;;8.61;69.51;92943.50;2054360;70;20611;-76
2022/11/03 07:12:55;;;;;;;14.70;5.68;;;;;;;8.75;68.78;92943.78;2054636;70;20372;-75
2022/11/03 07:15:33;;;;;;;12.00;6.05;;;;;;;8.76;69.30;92948.09;2054593;70;20178;-78
2022/11/03 07:18:01;;;;;;;12.98;5.97;;;;;;;8.52;69.85;92945.00;2054694;70;20649;-79
2022/11/03 07:20:27;;;;;;;19.98;8.20;;;;;;;8.59;69.29;92944.09;2054673;70;20213;-76
2022/11/03 07:22:55;;;;;;;19.13;7.60;;;;;;;8.67;69.28;92954.44;2054335;70;20158;-76
2022/11/03 07:25:21;;;;;;;22.02;8.63;;;;;;;8.58;70.16;92941.91;2054381;70;20146;-77
2022/11/03 07:27:54;;;;;;;18.73;8.07;;;;;;;8.67;69.89;92951.66;2054408;70;20247;-76
2022/11/03 07:30:28;;;;;;;14.50;7.47;;;;;;;8.72;69.68;92950.59;2054685;70;20250;-76
2022/11/03 07:32:59;;;;;;;14.90;6.90;;;;;;;8.65;70.15;92943.81;2054485;70;20177;-76
2022/11/03 07:35:33;;;;;;;15.52;7.82;;;;;;;8.24;70.91;92948.53;2054467;70;20146;-76
2022/11/03 07:38:02;;;;;;;23.10;10.60;;;;;;;8.47;70.38;92948.09;2054431;70;20235;-76
2022/11/03 07:40:32;;;;;;;23.30;10.23;;;;;;;8.48;69.98;92935.56;2054310;70;20174;-75
2022/11/03 07:42:59;;;;;;;22.80;11.38;;;;;;;8.30;70.84;92941.31;2054615;70;20177;-76
2022/11/03 07:45:38;;;;;;;22.38;11.40;;;;;;;8.56;69.87;92936.88;2054426;70;20153;-76
2022/11/03 07:48:35;;;;;;;23.73;12.32;;;;;;;8.59;69.66;92930.06;2054572;70;20574;-75
2022/11/03 07:51:40;;;;;;;25.33;12.80;;;;;;;8.55;69.97;92923.44;2040526;70;20140;-76
2022/11/03 07:54:17;;;;;;;20.58;10.43;;;;;;;8.31;70.83;92920.34;2040321;70;20230;-75
2022/11/03 07:57:12;;;;;;;24.52;9.23;;;;;;;8.38;70.69;92916.69;2043815;70;20179;-75
2022/11/03 07:59:50;;;;;;;24.08;10.38;;;;;;;8.43;70.48;92903.69;2042456;70;20147;-75
2022/11/03 08:02:31;;;;;;;16.48;8.73;;;;;;;8.58;70.48;92908.97;2043703;70;20192;-77
2022/11/03 08:04:57;;;;;;;18.10;9.73;;;;;;;8.67;70.46;92904.66;2043987;70;20175;-75
2022/11/03 08:07:23;;;;;;;19.05;9.05;;;;;;;8.96;71.44;92892.63;2043740;70;20246;-78
2022/11/03 08:09:49;;;;;;;15.02;7.72;;;;;;;9.33;69.94;92895.88;2043592;70;20571;-78
2022/11/03 08:12:15;;;;;;;21.13;7.70;;;;;;;9.29;69.92;92890.69;2043715;70;20226;-74
2022/11/03 08:14:40;;;;;;;19.05;7.72;;;;;;;9.60;70.03;92873.09;2043812;70;20163;-75
2022/11/03 08:17:06;;;;;;;14.23;7.13;;;;;;;9.92;68.48;92868.88;2043724;70;20266;-74
2022/11/03 08:19:32;;;;;;;11.73;5.28;;;;;;;9.80;68.09;92859.63;2043728;70;20131;-75
2022/11/03 08:21:57;;;;;;;11.65;6.20;;;;;;;9.97;66.66;92855.81;2043828;70;20226;-75
2022/11/03 08:24:23;;;;;;;10.73;5.65;;;;;;;9.88;65.82;92848.94;2043652;70;20155;-76
2022/11/03 08:26:48;;;;;;;10.45;6.20;;;;;;;9.80;66.15;92849.13;2044983;70;20618;-77
2022/11/03 08:29:16;;;;;;;10.68;4.80;;;;;;;9.97;65.29;92833.31;2054416;70;20710;-77
2022/11/03 08:31:42;;;;;;;11.43;4.82;;;;;;;10.54;64.18;92837.00;2054410;70;20246;-76
2022/11/03 08:34:08;;;;;;;12.48;5.40;;;;;;;10.83;63.94;92842.31;2054326;70;20154;-76
2022/11/03 08:36:34;;;;;;;11.98;6.50;;;;;;;10.48;64.30;92837.34;2054386;70;20193;-77
2022/11/03 08:38:59;;;;;;;17.45;7.43;;;;;;;9.96;67.13;92837.50;2054275;70;20149;-76
2022/11/03 08:41:25;;;;;;;13.25;7.25;;;;;;;10.81;65.72;92833.72;2054463;70;20200;-76
2022/11/03 08:43:50;;;;;;;15.60;6.70;;;;;;;10.69;64.53;92826.00;2054371;70;20153;-77
2022/11/03 08:46:16;;;;;;;24.17;12.63;;;;;;;10.37;66.51;92824.72;2054269;70;20134;-76
2022/11/03 08:48:42;;;;;;;15.27;7.20;;;;;;;11.14;64.75;92825.94;2054301;70;20149;-77
2022/11/03 08:51:09;;;;;;;15.18;7.32;;;;;;;11.43;65.26;92816.34;2054322;70;20138;-75
2022/11/03 08:53:34;;;;;;;13.20;6.68;;;;;;;11.56;63.80;92812.91;2054234;70;20169;-76
2022/11/03 08:56:00;;;;;;;15.98;7.45;;;;;;;11.45;62.43;92811.59;2051097;70;20146;-76
2022/11/03 08:58:26;;;;;;;12.23;6.70;;;;;;;12.14;61.97;92806.41;2054307;70;20142;-77
2022/11/03 09:00:51;;;;;;;13.32;5.93;;;;;;;12.57;60.50;92802.41;2054260;70;20219;-76
2022/11/03 09:03:18;;;;;;;13.65;5.45;;;;;;;12.82;61.41;92795.97;2054242;70;20262;-77
2022/11/03 09:05:44;;;;;;;9.90;5.18;;;;;;;12.43;59.20;92794.59;2054313;70;20138;-77
2022/11/03 09:08:09;;;;;;;10.90;4.95;;;;;;;12.81;59.61;92791.69;2050982;70;20514;-78
2022/11/03 09:10:35;;;;;;;10.77;6.10;;;;;;;13.04;60.00;92785.13;2054198;70;20138;-77
2022/11/03 09:13:01;;;;;;;16.83;7.75;;;;;;;13.76;58.38;92783.91;2054411;70;20658;-78
2022/11/03 09:15:26;;;;;;;16.00;5.10;;;;;;;14.27;56.90;92778.66;2054163;70;20176;-77
2022/11/03 09:17:52;;;;;;;10.70;4.82;;;;;;;14.60;55.77;92792.28;2054173;70;20277;-76
2022/11/03 09:20:17;;;;;;;10.20;4.53;;;;;;;13.75;55.45;92783.19;2054337;70;20204;-74
2022/11/03 09:22:43;;;;;;;10.95;5.45;;;;;;;13.91;56.55;92772.66;2054407;70;20142;-75
2022/11/03 09:25:09;;;;;;;7.15;4.72;;;;;;;14.62;55.83;92778.22;2054286;70;20160;-73
2022/11/03 09:27:35;;;;;;;9.95;4.50;;;;;;;14.56;52.58;92768.69;2054426;70;20186;-75
2022/11/03 09:30:01;;;;;;;12.13;4.75;;;;;;;14.85;53.69;92760.16;2054256;70;20142;-75
2022/11/03 09:32:26;;;;;;;7.20;4.28;;;;;;;15.39;53.17;92755.47;2054312;70;20122;-75
2022/11/03 09:34:53;;;;;;;7.97;4.32;;;;;;;15.49;51.95;92760.88;2054216;70;20145;-75
2022/11/03 09:37:19;;;;;;;11.63;4.43;;;;;;;15.45;51.10;92749.34;2054335;70;20150;-76
2022/11/03 09:39:44;;;;;;;16.67;4.40;;;;;;;16.23;51.02;92745.56;2050908;70;20165;-77
2022/11/03 09:42:14;;;;;;;8.00;3.63;;;;;;;16.77;49.33;92746.28;2054301;70;20161;-77
2022/11/03 09:44:41;;;;;;;15.85;3.70;;;;;;;16.94;48.39;92747.63;2054308;70;20157;-74
2022/11/03 09:47:11;;;;;;;7.05;3.50;;;;;;;17.38;48.17;92738.56;2054726;70;20193;-74
2022/11/03 09:49:37;;;;;;;12.35;4.47;;;;;;;17.78;48.06;92739.31;2054686;70;20134;-74
2022/11/03 09:52:04;;;;;;;8.13;3.95;;;;;;;18.27;46.81;92729.53;2054763;70;20502;-75
2022/11/03 09:54:30;;;;;;;8.43;4.10;;;;;;;17.62;44.93;92736.59;2054632;70;20157;-74
2022/11/03 09:57:04;;;;;;;10.25;3.83;;;;;;;18.37;44.05;92732.00;2054858;69;20573;-74
2022/11/03 09:59:30;;;;;;;8.93;4.53;;;;;;;17.82;47.16;92733.00;2054730;70;20224;-74
2022/11/03 10:01:55;;;;;;;9.52;4.18;;;;;;;18.82;45.07;92730.59;2054848;70;20146;-75
2022/11/03 10:04:26;;;;;;;7.82;3.95;;;;;;;19.34;44.12;92728.59;2054664;70;20146;-76
2022/11/03 10:06:54;;;;;;;8.60;3.50;;;;;;;20.17;42.02;92732.28;2054646;70;20158;-75
2022/11/03 10:09:22;;;;;;;7.90;3.90;;;;;;;20.36;40.96;92728.47;2054627;70;20149;-74
2022/11/03 10:11:50;;;;;;;7.50;3.97;;;;;;;21.22;39.29;92713.31;2051290;70;20212;-74
2022/11/03 10:14:16;;;;;;;6.97;3.70;;;;;;;20.27;39.86;92710.38;2054611;69;20133;-74
2022/11/03 10:16:55;;;;;;;11.88;3.83;;;;;;;20.68;41.21;92697.09;2054667;70;20337;-75
2022/11/03 10:19:20;;;;;;;8.32;3.58;;;;;;;20.29;41.32;92690.41;2054868;70;20145;-75
2022/11/03 10:21:46;;;;;;;9.23;3.75;;;;;;;20.43;40.58;92677.88;2054539;70;20142;-74
2022/11/03 10:24:13;;;;;;;9.30;3.22;;;;;;;20.25;40.22;92661.75;2054580;70;20166;-75
2022/11/03 10:26:46;;;;;;;6.50;2.72;;;;;;;21.08;38.70;92662.22;2054544;70;20324;-75
2022/11/03 10:29:21;;;;;;;;;;;;;;;21.39;37.49;92666.44;2054711;70;20174;-75
2022/11/03 10:31:50;;;;;;;5.68;3.10;;;;;;;21.10;38.08;92655.81;2054672;70;20138;-75
2022/11/03 10:34:22;;;;;;;6.32;2.40;;;;;;;21.28;36.48;92662.63;2054869;70;20146;-74
2022/11/03 10:36:48;;;;;;;9.35;2.85;;;;;;;22.66;34.39;92655.09;2054847;69;20292;-75
2022/11/03 10:39:31;;;;;;;7.43;2.75;;;;;;;24.22;33.42;92646.25;2054583;70;20248;-75
2022/11/03 10:41:58;;;;;;;7.35;2.88;;;;;;;24.15;32.51;92645.47;2054814;70;20225;-74
2022/11/03 10:44:28;;;;;;;5.78;2.75;;;;;;;24.35;30.91;92636.28;2054630;70;20173;-75
2022/11/03 10:46:59;;;;;;;4.88;2.10;;;;;;;25.12;31.03;92638.31;2054712;70;20586;-75
2022/11/03 10:49:34;;;;;;;7.03;2.30;;;;;;;24.28;31.88;92631.91;2054650;70;20232;-75
2022/11/03 10:52:16;;;;;;;6.40;2.67;;;;;;;23.01;32.62;92619.03;2051187;70;20154;-74
2022/11/03 10:54:41;;;;;;;5.70;2.80;;;;;;;22.73;32.82;92624.34;2054597;70;20154;-75
2022/11/03 10:57:07;;;;;;;5.43;2.63;;;;;;;24.64;30.87;92622.88;2054448;69;20149;-75
2022/11/03 10:59:36;;;;;;;5.13;2.38;;;;;;;24.94;30.38;92613.72;2054539;70;20150;-75
2022/11/03 11:02:11;;;;;;;5.32;2.15;;;;;;;26.21;28.62;92620.69;2054546;70;20152;-74
2022/11/03 11:04:37;;;;;;;4.43;1.77;;;;;;;25.65;28.19;92618.38;2054520;69;20228;-75
2022/11/03 11:07:17;;;;;;;5.10;2.40;;;;;;;26.24;27.48;92609.88;2054510;69;20149;-75
2022/11/03 11:09:42;;;;;;;7.63;2.70;;;;;;;27.74;27.01;92608.94;2054258;70;20182;-75
2022/11/03 11:12:17;;;;;;;9.32;2.60;;;;;;;27.24;27.67;92610.53;2054640;70;20153;-74
2022/11/03 11:14:55;;;;;;;6.65;2.72;;;;;;;26.92;27.57;92607.69;2054346;70;20590;-75
2022/11/03 11:17:53;;;;;;;6.65;3.15;;;;;;;26.37;29.43;92596.91;2054522;70;20297;-75
2022/11/03 11:20:33;;;;;;;7.60;2.78;;;;;;;25.28;28.80;92595.19;2040429;70;20243;-75
2022/11/03 11:23:27;;;;;;;5.40;2.70;;;;;;;26.80;26.97;92583.19;2040503;70;20147;-75
2022/11/03 11:26:08;;;;;;;6.75;2.30;;;;;;;26.24;28.58;92572.38;2040553;70;20139;-74
2022/11/03 11:28:57;;;;;;;7.00;2.22;;;;;;;28.63;25.81;92572.88;2040461;70;20246;-75
2022/11/03 11:31:26;;;;;;;5.22;2.35;;;;;;;26.92;26.41;92556.44;2040556;70;20317;-75
2022/11/03 11:34:09;;;;;;;7.30;2.40;;;;;;;26.48;26.70;92555.09;2040550;70;20162;-74
2022/11/03 11:36:36;;;;;;;4.75;2.25;;;;;;;28.92;25.64;92569.00;2040467;70;20280;-75
2022/11/03 11:39:27;;;;;;;5.38;2.08;;;;;;;29.48;23.77;92567.69;2040529;70;20203;-77
2022/11/03 11:42:12;;;;;;;6.32;1.88;;;;;;;30.22;23.42;92560.91;2040434;70;20238;-76
2022/11/03 11:44:53;;;;;;;4.53;1.73;;;;;;;29.32;25.44;92567.84;2037765;70;20250;-78
2022/11/03 11:47:22;;;;;;;10.90;6.07;;;;;;;29.94;23.99;92559.13;2040388;70;20603;-77
2022/11/03 11:49:48;;;;;;;10.02;5.60;;;;;;;32.50;22.63;92547.81;2040518;70;20139;-78
2022/11/03 11:52:14;;;;;;;6.32;2.63;;;;;;;33.31;21.73;92550.13;2040510;70;20230;-76
2022/11/03 11:54:43;;;;;;;7.68;2.90;;;;;;;33.17;21.63;92550.53;2040370;70;20458;-77
2022/11/03 11:57:32;;;;;;;6.10;2.70;;;;;;;31.88;20.48;92544.84;2052879;70;20599;-75
2022/11/03 11:59:58;;;;;;;4.78;1.90;;;;;;;32.66;20.21;92537.25;2050867;70;20619;-75
2022/11/03 12:02:28;;;;;;;5.07;1.83;;;;;;;32.26;21.13;92534.53;2050946;70;20230;-75
2022/11/03 12:05:02;;;;;;;3.13;2.00;;;;;;;29.12;22.43;92525.34;2051001;70;20151;-76